Arnett, WV

8:31 PM EST on February 08, 2016 (GMT -0500)
Fairdale | | Change Station
CLOSE
Current Station
Personal Weather Station
Location: Lester, WV
Elevation: 1938 ft
Nearby Weather Stations
Active Advisory: Winter Weather Advisory

Elev 1938 ft 37.74 °N, 81.35 °W | Updated 3 seconds ago

Overcast
Overcast
31.6 °F
Feels Like 32 °F
N
0.0
Wind Variable Wind from WNW
Gusts 0.0 mph

Today
High -- | Low -- °F
--% Chance of Precip.
Yesterday
High -- | Low -- °F
Precip. -- in
Pressure 29.63 in
Visibility 10.0 miles
Clouds Few 1100 ft
Few 2700 ft
Mostly Cloudy 7500 ft
Windchill 32 °F
Dew Point 17 °F
Humidity 55%
Rainfall 0.00 in
Snow Depth Not available.
7:23 AM 5:56 PM
New Moon, 0% visible
SPECI KBKW 090118Z AUTO 26006KT 10SM FEW011 FEW027 BKN075 M02/M04 A2963 RMK AO2 T10171039
Pressure 29.63 in
Visibility 10.0 miles
Clouds Few 1100 ft
Few 2700 ft
Mostly Cloudy 7500 ft
Windchill 32 °F
Dew Point 17 °F
Humidity 55%
Rainfall 0.00 in
Snow Depth Not available.
7:23 AM 5:56 PM
New Moon, 0% visible
SPECI KBKW 090118Z AUTO 26006KT 10SM FEW011 FEW027 BKN075 M02/M04 A2963 RMK AO2 T10171039

10-Day Weather Forecast

Almanac

Astronomy

Feb. 08, 2016 Rise Set
Actual Time
Civil Twilight
Nautical Twilight
Astronomical Twilight
Moon
Length of Visible Light
Length of Day
Tomorrow will be .
, % of the Moon is Illuminated

Today's Extremes

State Highs State Lows

Community

WunderPhotos

Upload Photos

1,891,527 photos uploaded!

WunderBlog® & News

Nearby

Air Quality

  Air Quality AQ Index Pollutant
Not available.

Snow Depth

Station Depth Elevation

Earthquake Activity

City Distance Mag. Time & Date
Minimum magnitude displayed is 2.5.

Coastal Water Temperatures

Place Temperature

Stations

Nearby Weather Stations

Station Location Temp. Windchill Dew Point Humidity Wind Precip. Elev Updated Type
                   

Watches & Warnings

Winter Weather Advisory
Issued: 3:29 PM EST Feb. 8, 2016 – National Weather Service

... Winter Weather Advisory remains in effect from 7 PM this
evening to 7 am EST Wednesday...

* hazard types... snow.

* Snow accumulations... snow accumulation of 2 to 6 inches over a
36 hour period. Some settling and melting of fallen snow is
expected to occur during the advisory period.

* Timing... snow showers will be around for the mid week period
with varying intensity.

* Impacts... travel may be difficult at times. Visibilities will
be limited at times.

Precautionary/preparedness actions...

A Winter Weather Advisory for snow means that periods of snow
will cause primarily travel difficulties. Be prepared for snow
covered roads and limited visibilities... and use caution while
driving.